KTOR

Torrington Municipal Airport

Torrington, Wyoming, USA
METAR KTOR 220653Z AUTO 08008KT 10SM CLR 10/04 A3016 RMK AO2 SLP183 T01000044 402560017
Observed Flight Rules
Sep-22 @ 06:53 UTC (28 minutes ago) Visual Flight Rules
Wind Visibility Clouds
80° at 8 knots 10 miles
Temperatures Readings
Current 10°C / 50°F
Dewpoint 4°C / 39°F
Humidity 67%
Altimeter 30.16" Hg
Pressure 1018.3 hPa
Elevation 1277
METAR KTOR 220653Z AUTO 08008KT 10SM CLR 10/04 A3016 RMK AO2 SLP183 T01000044 402560017
Observed Flight Rules
Sep-22 @ 06:53 UTC
(28 minutes ago)
VFR
Wind Visibility
80° at 8 knots 10 miles
Clouds
Temperature Dewpoint
10°C / 50°F 4°C / 39°F
Humidity Altimeter Pressure
67% 30.16" Hg 1018.3 hPa